• Join FlightAware (Why Join?)
  • Login
  • US Flag 
10:53AM EDT


 

Airport Tracker/Info


-or-


 

Live Flight TrackerFlight Track Log ✈ DAL1117 ✈ 01-May-2013 ✈ KDTW - KLAS

Flight Track Log - Related Links

Times and Time Zones

All times are in EDT time to prevent confusion due to time zone crossing. See the DAL1117 flight status page for this flight to view local times or setup timezone preferences in your user account.

Time Position Orientation Groundspeed Altitude Reporting Facility
EDT Latitude Longitude Course Direction KTS MPH feet Rate Location/Type
09:39PM 42.1994 -83.3608 275° West 164 189 1,400  Level Cleveland Center
09:39PM 42.1886 -83.3772 228° Southwest 169 194 2,300 1,260 Climbing Cleveland Center
09:40PM 42.1472 -83.4483 232° Southwest 253 291 3,400 1,680 Climbing Cleveland Center
09:41PM 42.3099 -83.7829 285° West  Level FlightAware Approximate
09:41PM 42.1117 -83.5333 241° Southwest 293 337 5,900  Level Cleveland Center
09:42PM 42.3495 -83.9261 292° West  Level FlightAware Approximate
09:42PM 42.1411 -83.6106 297° West 295 339 8,100  Level Cleveland Center
09:43PM 42.3921 -84.0680 292° West  Level FlightAware Approximate
09:43PM 42.1864 -83.7050 303° West 313 360 10,400  Level Cleveland Center
09:44PM 42.4188 -84.2146 275° West  Level FlightAware Approximate
09:44PM 42.2397 -83.8114 304° West 332 382 11,400  Level Cleveland Center
09:45PM 42.3008 -83.9353 304° West 370 426 12,900 1,740 Climbing Cleveland Center
09:46PM 42.3636 -84.0681 303° West 401 461 14,900 1,860 Climbing Cleveland Center
09:47PM 42.4242 -84.2036 301° West 422 486 16,700 1,860 Climbing Cleveland Center
09:48PM 42.4292 -84.3700 272° West 422 486 18,700 2,460 Climbing Cleveland Center
09:49PM 42.4344 -84.5194 273° West 422 486 21,700 1,500 Climbing Cleveland Center
09:50PM 42.4406 -84.7222 272° West 412 474 22,300 540 Climbing Chicago Center
09:51PM 42.4442 -84.8964 272° West 450 518 23,000 780 Climbing Chicago Center
09:52PM 42.4478 -85.0747 272° West 467 537 23,900 840 Climbing Chicago Center
09:53PM 42.4533 -85.2544 272° West 476 548 24,800 840 Climbing Chicago Center
09:54PM 42.4561 -85.4408 271° West 490 564 25,700 780 Climbing Chicago Center
09:55PM 42.4586 -85.6258 271° West 491 565 26,400 840 Climbing Chicago Center
09:56PM 42.4619 -85.8133 271° West 495 570 27,500 1,200 Climbing Chicago Center
09:57PM 42.4647 -86.0394 271° West 496 571 28,900 1,140 Climbing Chicago Center
09:58PM 42.4506 -86.2236 264° West 493 567 29,900 840 Climbing Chicago Center
09:59PM 42.4275 -86.4006 260° West 478 550 30,700 780 Climbing Chicago Center
10:00PM 42.4050 -86.5797 260° West 481 554 31,600 780 Climbing Chicago Center
10:01PM 42.3831 -86.7644 261° West 474 545 32,400 1,020 Climbing Chicago Center
10:03PM 42.3614 -86.9342 260° West 467 537 33,800 780 Climbing Chicago Center
10:04PM 42.3375 -87.0972 259° West 453 521 34,000 60 Climbing Chicago Center
10:05PM 42.3161 -87.2653 260° West 458 527 34,000  Level Chicago Center
10:06PM 42.2942 -87.4289 260° West 451 519 34,000  Level Chicago Center
10:07PM 42.2672 -87.6217 259° West 443 510 34,000  Level Chicago Center
10:08PM 42.2439 -87.7844 259° West 444 511 34,000  Level Chicago Center
10:09PM 42.2208 -87.9506 259° West 452 520 34,000  Level Chicago Center
10:10PM 42.1933 -88.1122 257° West 450 518 34,000  Level Chicago Center
10:11PM 42.1647 -88.2717 256° West 445 512 34,000  Level Chicago Center
10:12PM 42.1361 -88.4319 257° West 444 511 34,000  Level Chicago Center
10:13PM 42.1019 -88.6231 257° West 442 509 34,000  Level Chicago Center
10:14PM 42.0725 -88.7833 256° West 447 514 34,000  Level Chicago Center
10:15PM 42.0433 -88.9436 256° West 447 514 34,000  Level Chicago Center
10:16PM 42.0139 -89.1036 256° West 446 513 34,000  Level Chicago Center
10:17PM 41.9850 -89.2647 256° West 449 517 34,000  Level Chicago Center
10:18PM 41.9550 -89.4231 256° West 443 510 34,000  Level Chicago Center
10:19PM 41.9244 -89.5806 255° West 440 506 34,000  Level Chicago Center
10:20PM 41.8886 -89.7706 256° West 442 509 34,000  Level Chicago Center
10:21PM 41.8619 -89.9111 256° West 447 514 34,000  Level Chicago Center
10:22PM 41.8308 -90.0719 255° West 448 516 34,000  Level Chicago Center
10:23PM 41.8003 -90.2317 256° West 447 514 34,000  Level Chicago Center
10:24PM 41.7672 -90.4006 255° West 452 520 34,000  Level Chicago Center
10:25PM 41.7292 -90.5906 255° West 442 509 34,000  Level Chicago Center
10:26PM 41.6981 -90.7411 255° West 441 507 34,000  Level Chicago Center
10:27PM 41.6667 -90.8997 255° West 443 510 34,000  Level Chicago Center
10:28PM 41.6356 -91.0567 255° West 441 507 34,000  Level Chicago Center
10:29PM 41.6019 -91.2158 254° West 444 511 34,000  Level Chicago Center
10:30PM 41.5697 -91.3728 255° West 443 510 34,000  Level Chicago Center
10:31PM 41.5367 -91.5328 255° West 446 513 34,000  Level Chicago Center
10:32PM 41.5081 -91.7283 259° West 451 519 34,000  Level Chicago Center
10:33PM 41.4933 -91.8892 263° West 443 510 34,000  Level Chicago Center
10:34PM 41.4775 -92.0500 263° West 440 506 34,000  Level Chicago Center
10:35PM 41.4628 -92.2097 263° West 439 505 34,000  Level Chicago Center
10:36PM 41.4464 -92.3689 262° West 438 504 34,000  Level Chicago Center
10:37PM 41.4306 -92.5211 262° West 436 502 34,000  Level Chicago Center
10:38PM 41.4114 -92.7111 262° West 437 503 34,000  Level Chicago Center
10:39PM 41.4050 -92.7753 262° West 434 499 34,000  Level Minneapolis Center
10:40PM 41.3892 -92.9283 262° West 428 493 34,000  Level Minneapolis Center
10:41PM 41.3728 -93.0828 262° West 426 490 34,000  Level Minneapolis Center
10:42PM 41.3564 -93.2386 262° West 428 493 34,000  Level Minneapolis Center
10:43PM 41.3389 -93.3925 261° West 427 491 34,000  Level Minneapolis Center
10:44PM 41.3219 -93.5456 262° West 425 489 34,000  Level Minneapolis Center
10:45PM 41.3044 -93.7292 263° West 423 487 34,000  Level Minneapolis Center
10:46PM 41.2869 -93.8817 261° West 424 488 34,000  Level Minneapolis Center
10:47PM 41.2681 -94.0369 261° West 428 493 34,000  Level Minneapolis Center
10:48PM 41.2508 -94.1897 262° West 425 489 34,000  Level Minneapolis Center
10:49PM 41.2317 -94.3547 261° West 425 489 34,000  Level Minneapolis Center
10:50PM 41.2142 -94.5114 262° West 428 493 34,000  Level Minneapolis Center
10:51PM 41.1944 -94.6667 260° West 427 491 34,000  Level Minneapolis Center
10:52PM 41.1756 -94.8208 261° West 425 489 34,000  Level Minneapolis Center
10:53PM 41.1572 -94.9747 261° West 423 487 34,000  Level Minneapolis Center
10:54PM 41.1372 -95.1303 260° West 425 489 34,000  Level Minneapolis Center
10:55PM 41.1178 -95.2853 261° West 425 489 34,000  Level Minneapolis Center
10:56PM 41.0983 -95.4411 261° West 426 490 34,000  Level Minneapolis Center
10:57PM 41.0767 -95.5958 260° West 425 489 34,000  Level Minneapolis Center
10:58PM 41.0569 -95.7503 260° West 423 487 34,000 -60 Level Minneapolis Center
10:59PM 41.0367 -95.9028 260° West 418 481 33,900 -60 Descending Minneapolis Center
11:00PM 41.0164 -96.0575 260° West 421 484 33,900 60 Level Minneapolis Center
11:01PM 40.9961 -96.2133 260° West 424 488 34,100 420 Climbing Minneapolis Center
11:02PM 40.9747 -96.3697 260° West 427 491 34,800 660 Climbing Minneapolis Center
11:03PM 40.9500 -96.5556 260° West 427 491 35,500 540 Climbing Minneapolis Center
11:04PM 40.9286 -96.7078 260° West 423 487 36,000 240 Climbing Minneapolis Center
11:05PM 40.9114 -96.8603 262° West 420 483 36,000  Level Minneapolis Center
11:06PM 40.8981 -97.0142 264° West 420 483 36,000  Level Minneapolis Center
11:07PM 40.8833 -97.1661 263° West 418 481 36,000  Level Minneapolis Center
11:08PM 40.8683 -97.3186 263° West 419 482 36,000  Level Minneapolis Center
11:09PM 40.8525 -97.4808 263° West 417 480 36,000  Level Minneapolis Center
11:10PM 40.8369 -97.6322 262° West 415 478 36,000  Level Minneapolis Center
11:11PM 40.8217 -97.7814 262° West 411 473 36,000  Level Minneapolis Center
11:12PM 40.8058 -97.9317 262° West 412 474 36,000  Level Minneapolis Center
11:13PM 40.7903 -98.0806 262° West 410 472 36,000  Level Minneapolis Center
11:14PM 40.7742 -98.2306 262° West 410 472 36,000  Level Minneapolis Center
11:15PM 40.7589 -98.3794 262° West 408 470 36,000  Level Minneapolis Center
11:16PM 40.7414 -98.5289 261° West 409 471 36,000  Level Minneapolis Center
11:17PM 40.7261 -98.6783 262° West 408 470 36,000  Level Minneapolis Center
11:18PM 40.7097 -98.8239 262° West 402 463 36,000  Level Minneapolis Center
11:19PM 40.6933 -98.9650 261° West 392 451 36,000  Level Minneapolis Center
11:20PM 40.6761 -99.1069 261° West 390 449 36,000  Level Minneapolis Center
11:21PM 40.6658 -99.1636 257° West 391 450 36,000  Level Denver Center
11:22PM 40.6433 -99.3061 258° West 395 455 36,000  Level Denver Center
11:23PM 40.6144 -99.4758 257° West 396 456 36,000  Level Denver Center
11:24PM 40.5911 -99.6169 258° West 394 453 36,000  Level Denver Center
11:25PM 40.5678 -99.7592 258° West 396 456 36,000  Level Denver Center
11:26PM 40.5411 -99.9156 257° West 394 453 36,000  Level Denver Center
11:27PM 40.5178 -100.0492 257° West 392 451 36,000  Level Denver Center
11:28PM 40.4911 -100.2058 257° West 394 453 36,000  Level Denver Center
11:29PM 40.4719 -100.3186 257° West 395 455 36,000  Level Denver Center
11:30PM 40.4447 -100.4781 257° West 398 458 36,000  Level Denver Center
11:31PM 40.4169 -100.6364 257° West 397 457 36,000  Level Denver Center
11:32PM 40.3919 -100.7722 256° West 397 457 36,000  Level Denver Center
11:33PM 40.3689 -100.9075 257° West 396 456 36,000  Level Denver Center
11:34PM 40.3397 -101.0653 256° West 398 458 36,000  Level Denver Center
11:35PM 40.3164 -101.2000 257° West 396 456 36,000  Level Denver Center
11:36PM 40.2914 -101.3356 256° West 397 457 36,000  Level Denver Center
11:37PM 40.2625 -101.4928 257° West 398 458 36,000  Level Denver Center
11:38PM 40.2375 -101.6272 256° West 397 457 36,000  Level Denver Center
11:39PM 40.2122 -101.7631 256° West 401 461 36,000  Level Denver Center
11:40PM 40.1828 -101.9211 256° West 401 461 36,000  Level Denver Center
11:41PM 40.1567 -102.0581 256° West 404 465 36,000  Level Denver Center
11:42PM 40.1317 -102.1939 257° West 402 463 36,000  Level Denver Center
11:43PM 40.1011 -102.3544 256° West 408 470 36,000  Level Denver Center
11:44PM 40.0747 -102.4917 256° West 408 470 36,000  Level Denver Center
11:45PM 40.0400 -102.6522 254° West 412 474 36,000  Level Denver Center
11:46PM 40.0056 -102.7808 251° West 412 474 36,000  Level Denver Center
11:48PM 39.9706 -102.9258 253° West 415 478 36,000  Level Denver Center
11:49PM 39.9361 -103.0708 253° West 416 479 36,000  Level Denver Center
11:50PM 39.9000 -103.2169 252° West 421 484 36,000  Level Denver Center
11:51PM 39.8633 -103.3614 252° West 419 482 36,000  Level Denver Center
11:52PM 39.8272 -103.5061 252° West 416 479 36,000  Level Denver Center
11:53PM 39.7908 -103.6508 252° West 418 481 36,000  Level Denver Center
11:54PM 39.7547 -103.7972 252° West 424 488 36,000  Level Denver Center
11:55PM 39.7028 -103.9336 244° Southwest 424 488 36,000  Level Denver Center
11:56PM 39.6450 -104.0658 240° Southwest 415 478 36,000  Level Denver Center
11:57PM 39.5758 -104.2222 240° Southwest 424 488 36,000  Level Denver Center
11:58PM 39.5350 -104.3378 245° Southwest 418 481 36,000  Level Denver Center
11:59PM 39.4978 -104.4844 252° West 421 484 36,000  Level Denver Center
12:00AM 39.4533 -104.6561 252° West 419 482 36,000  Level Denver Center
12:01AM 39.4208 -104.7803 251° West 425 489 36,000  Level Denver Center
12:02AM 39.3836 -104.9297 252° West 430 495 36,000  Level Denver Center
12:03AM 39.3464 -105.0758 252° West 424 488 36,000  Level Denver Center
12:04AM 39.3081 -105.2217 251° West 421 484 36,000  Level Denver Center
12:05AM 39.2697 -105.3692 251° West 425 489 36,000  Level Denver Center
12:06AM 39.2281 -105.5389 252° West 420 483 36,000  Level Denver Center
12:07AM 39.1889 -105.6831 251° West 420 483 36,000  Level Denver Center
12:08AM 39.1511 -105.8267 251° West 421 484 36,000  Level Denver Center
12:09AM 39.1122 -105.9694 251° West 419 482 36,000  Level Denver Center
12:10AM 39.0736 -106.1133 251° West 420 483 36,000  Level Denver Center
12:11AM 39.0353 -106.2511 250° West 423 487 36,000  Level Denver Center
12:12AM 38.9992 -106.3875 251° West 422 486 36,000  Level Denver Center
12:13AM 38.9542 -106.5475 250° West 425 489 36,000  Level Denver Center
12:14AM 38.9158 -106.6886 251° West 434 499 36,000  Level Denver Center
12:15AM 38.8764 -106.8297 250° West 433 498 36,000  Level Denver Center
12:16AM 38.8358 -106.9753 250° West 432 497 36,000  Level Denver Center
12:17AM 38.7953 -107.1181 250° West 425 489 36,000  Level Denver Center
12:18AM 38.7561 -107.2603 251° West 421 484 36,000  Level Denver Center
12:19AM 38.7106 -107.4197 250° West 426 490 36,000  Level Denver Center
12:20AM 38.6708 -107.5572 250° West 429 494 36,000  Level Denver Center
12:21AM 38.6328 -107.6931 250° West 426 490 36,000  Level Denver Center
12:22AM 38.5881 -107.8469 250° West 415 478 36,000  Level Denver Center
12:23AM 38.5511 -107.9789 250° West 413 475 36,000  Level Denver Center
12:24AM 38.5125 -108.1119 250° West 415 478 36,000  Level Denver Center
12:25AM 38.4658 -108.2689 249° West 420 483 36,000  Level Denver Center
12:26AM 38.4278 -108.4017 250° West 417 480 36,000  Level Denver Center
12:27AM 38.3889 -108.5322 249° West 411 473 36,000  Level Denver Center
12:28AM 38.3444 -108.6842 250° West 410 472 36,000  Level Denver Center
12:29AM 38.3056 -108.8147 249° West 412 474 36,000  Level Denver Center
12:30AM 38.2672 -108.9458 250° West 412 474 36,000  Level Denver Center
12:31AM 38.2208 -109.0953 248° West 408 470 36,000  Level Denver Center
12:32AM 38.1808 -109.2272 249° West 415 478 36,000  Level Denver Center
12:33AM 38.1419 -109.3553 249° West 408 470 36,000  Level Denver Center
12:34AM 38.0933 -109.5106 248° West 421 484 36,000  Level Denver Center
12:35AM 38.0536 -109.6433 249° West 421 484 36,000  Level Denver Center
12:36AM 38.0094 -109.7831 248° West 417 480 36,000  Level Denver Center
12:37AM 37.9697 -109.9156 249° West 421 484 36,000  Level Denver Center
12:38AM 37.9219 -110.0694 249° West 422 486 36,000  Level Denver Center
12:39AM 37.8797 -110.2003 248° West 420 483 36,000  Level Denver Center
12:40AM 37.8383 -110.3344 249° West 426 490 36,000  Level Denver Center
12:41AM 37.7894 -110.4869 248° West 421 484 36,000  Level Denver Center
12:42AM 37.7497 -110.6142 248° West 426 490 36,000  Level Denver Center
12:43AM 37.7053 -110.7506 248° West 422 486 36,000  Level Denver Center
12:44AM 37.6617 -110.8875 248° West 421 484 36,000  Level Denver Center
12:45AM 37.6181 -111.0253 248° West 423 487 36,000  Level Denver Center
12:46AM 37.5736 -111.1617 248° West 421 484 36,000  Level Denver Center
12:47AM 37.5314 -111.2986 249° West 420 483 36,000  Level Denver Center
12:48AM 37.4864 -111.4356 248° West 423 487 36,000 -600 Level Denver Center
12:50AM 37.4242 -111.6250 248° West 421 484 34,700 -1,440 Descending Denver Center
12:51AM 37.3786 -111.7619 247° West 425 489 32,800 -1,500 Descending Denver Center
12:51AM 37.3497 -111.8436 246° West 424 488 32,000 -480 Descending Los Angeles Center
12:52AM 37.2919 -112.0164 247° West 444 511 32,000  Level Los Angeles Center
12:53AM 37.2450 -112.1600 248° West 443 510 32,000  Level Los Angeles Center
12:54AM 37.1964 -112.3003 247° West 437 503 32,000  Level Los Angeles Center
12:56AM 37.1500 -112.4394 247° West 432 497 32,000  Level Los Angeles Center
12:57AM 37.1019 -112.5806 247° West 437 503 32,000  Level Los Angeles Center
12:58AM 37.0531 -112.7225 247° West 440 506 32,000  Level Los Angeles Center
12:59AM 37.0058 -112.8628 247° West 437 503 32,000 -240 Level Los Angeles Center
01:00AM 36.9572 -113.0022 246° West 436 502 31,600 -720 Descending Los Angeles Center
01:01AM 36.9092 -113.1386 246° West 431 496 30,600 -1,020 Descending Los Angeles Center
01:02AM 36.8603 -113.2778 246° West 435 501 29,600 -1,020 Descending Los Angeles Center
01:03AM 36.8103 -113.4189 246° West 442 509 28,600 -1,020 Descending Los Angeles Center
01:04AM 36.7608 -113.5633 247° West 451 519 27,600 -1,260 Descending Los Angeles Center
01:05AM 36.6994 -113.7336 246° West 450 518 26,100 -2,280 Descending Los Angeles Center
01:06AM 36.6492 -113.8747 246° West 448 516 23,000 -3,000 Descending Los Angeles Center
01:07AM 36.6011 -114.0108 246° West 434 499 20,000 -2,880 Descending Los Angeles Center
01:08AM 36.5617 -114.1169 245° Southwest 429 494 17,800 -2,940 Descending Los Angeles Center
01:09AM 36.4875 -114.2739 240° Southwest 418 481 14,000 -2,340 Descending Los Angeles Center
01:10AM 36.4417 -114.3833 243° Southwest 377 434 12,900 -1,020 Descending Los Angeles Center
01:11AM 36.3922 -114.4914 240° Southwest 326 375 12,000 -900 Descending Los Angeles Center
01:12AM 36.3425 -114.5992 240° Southwest 320 368 10,900 -1,260 Descending Los Angeles Center
01:13AM 36.3036 -114.6747 237° Southwest 310 357 9,500 -1,320 Descending Los Angeles Center
01:14AM 36.2628 -114.7653 241° Southwest 303 349 8,400 -780 Descending Los Angeles Center
01:15AM 36.2217 -114.8483 238° Southwest 285 328 8,000 -240 Descending Los Angeles Center
01:16AM 36.1781 -114.9156 231° Southwest 254 292 8,000  Level Los Angeles Center
01:17AM 36.1408 -114.9717 231° Southwest 221 254 8,000  Level Los Angeles Center
01:18AM 36.1047 -115.0225 229° Southwest 198 228 8,000  Level Los Angeles Center
01:19AM 36.0628 -115.0769 226° Southwest 205 236 8,000 -420 Level Los Angeles Center
01:20AM 36.0100 -115.1128 209° Southwest 215 247 7,200 -1,020 Descending Los Angeles Center
01:21AM 35.9581 -115.1514 211° Southwest 221 254 6,000 -600 Descending Los Angeles Center
01:22AM 35.9044 -115.1928 212° Southwest 226 260 6,000  Level Los Angeles Center
01:23AM 35.9036 -115.2489 269° West 175 201 6,000 -420 Level Los Angeles Center
01:24AM 35.9400 -115.2475 North 146 168 5,300 -780 Descending Los Angeles Center